createdAt,value
2024-02-12T00:01:50.566Z,2.03
2024-02-12T00:06:57.896Z,2.17
2024-02-12T00:12:02.732Z,2.30
2024-02-12T00:17:11.658Z,2.10
2024-02-12T00:22:17.736Z,2.23
2024-02-12T00:27:22.243Z,2.70
2024-02-12T00:32:27.924Z,2.37
2024-02-12T00:37:35.813Z,2.40
2024-02-12T00:42:42.105Z,2.63
2024-02-12T00:47:46.804Z,2.03
2024-02-12T00:52:54.828Z,3.13
2024-02-12T00:57:59.804Z,2.50
2024-02-12T01:03:05.979Z,2.47
2024-02-12T01:08:11.918Z,2.93
2024-02-12T01:13:16.654Z,3.37
2024-02-12T01:18:21.173Z,2.60
2024-02-12T01:23:29.420Z,2.73
2024-02-12T01:28:34.270Z,2.73
2024-02-12T01:33:40.779Z,2.40
2024-02-12T01:38:47.310Z,2.57
2024-02-12T01:43:53.490Z,2.47
2024-02-12T01:48:58.200Z,2.83
2024-02-12T01:54:04.399Z,2.70
2024-02-12T01:59:16.856Z,2.60
2024-02-12T02:04:21.473Z,3.10
2024-02-12T02:09:28.500Z,2.40
2024-02-12T02:14:33.054Z,2.33
2024-02-12T02:19:39.830Z,2.47
2024-02-12T02:24:45.676Z,2.97
2024-02-12T02:29:51.577Z,2.20
2024-02-12T02:34:56.948Z,2.33
2024-02-12T02:40:04.252Z,2.60
2024-02-12T02:45:09.990Z,2.47
2024-02-12T02:50:14.552Z,1.93
2024-02-12T02:55:20.473Z,2.17
2024-02-12T03:00:28.072Z,1.90
2024-02-12T03:05:32.700Z,2.17
2024-02-12T03:10:38.904Z,1.70
2024-02-12T03:15:44.592Z,2.10
2024-02-12T03:20:49.217Z,2.10
2024-02-12T03:25:55.078Z,2.10
2024-02-12T03:30:59.451Z,1.93
2024-02-12T03:36:04.462Z,2.10
2024-02-12T03:41:10.421Z,2.07
2024-02-12T03:46:22.208Z,1.80
2024-02-12T03:51:49.658Z,2.10
2024-02-12T03:57:12.636Z,2.20
2024-02-12T04:02:17.243Z,1.90
2024-02-12T04:07:23.627Z,1.80
2024-02-12T04:12:30.051Z,2.03
2024-02-12T04:17:35.946Z,1.93
2024-02-12T04:22:40.792Z,1.80
2024-02-12T04:27:47.533Z,1.73
2024-02-12T04:32:52.079Z,1.70
2024-02-12T04:37:57.021Z,1.87
2024-02-12T04:43:03.072Z,1.63
2024-02-12T04:48:14.945Z,1.60
2024-02-12T04:53:20.274Z,1.57
2024-02-12T04:58:26.177Z,1.73
2024-02-12T05:03:31.067Z,1.43
2024-02-12T05:08:35.913Z,1.57
2024-02-12T05:13:42.300Z,1.60
2024-02-12T05:19:04.297Z,1.40
2024-02-12T05:24:10.214Z,1.47
2024-02-12T05:29:16.134Z,1.50
2024-02-12T05:34:22.495Z,1.30
2024-02-12T05:39:27.080Z,1.60
2024-02-12T05:44:36.083Z,1.80
2024-02-12T05:49:40.651Z,1.17
2024-02-12T05:54:45.174Z,1.40
2024-02-12T05:59:51.140Z,1.40
2024-02-12T06:04:55.761Z,1.50
2024-02-12T06:10:00.268Z,1.70
2024-02-12T06:15:06.502Z,1.60
2024-02-12T06:20:12.969Z,1.60
2024-02-12T06:25:20.449Z,1.37
2024-02-12T06:30:26.362Z,1.70
2024-02-12T06:35:31.376Z,1.30
2024-02-12T06:40:36.252Z,1.53
2024-02-12T06:45:42.992Z,1.50
2024-02-12T06:50:48.727Z,1.50
2024-02-12T06:55:53.279Z,1.67
2024-02-12T07:00:59.281Z,1.47
2024-02-12T07:06:04.164Z,1.63
2024-02-12T07:11:08.755Z,2.20
2024-02-12T07:16:22.641Z,1.60
2024-02-12T07:21:27.158Z,1.67
2024-02-12T07:26:31.954Z,1.80
2024-02-12T07:31:38.850Z,1.57
2024-02-12T07:36:46.576Z,1.80
2024-02-12T07:41:51.660Z,2.00
2024-02-12T07:46:59.334Z,1.90
2024-02-12T07:52:03.952Z,1.87
2024-02-12T07:57:10.000Z,2.10
2024-02-12T08:02:15.640Z,1.80
2024-02-12T08:07:22.464Z,1.90
2024-02-12T08:12:29.411Z,2.00
2024-02-12T08:17:36.359Z,2.10
2024-02-12T08:22:41.720Z,1.70
2024-02-12T08:27:46.439Z,2.10
2024-02-12T08:32:52.629Z,2.10
2024-02-12T08:37:57.962Z,1.87
2024-02-12T08:43:02.467Z,1.67
2024-02-12T08:48:09.286Z,1.73
2024-02-12T08:53:18.156Z,1.50
2024-02-12T08:58:23.811Z,2.10
2024-02-12T09:03:29.450Z,1.90
2024-02-12T09:08:36.962Z,2.17
2024-02-12T09:13:44.318Z,2.10
2024-02-12T09:18:50.326Z,2.10
2024-02-12T09:23:55.286Z,2.33
2024-02-12T09:29:00.378Z,2.50
2024-02-12T09:34:06.539Z,2.10
2024-02-12T09:39:11.364Z,2.37
2024-02-12T09:44:17.317Z,2.00
2024-02-12T09:49:23.530Z,2.23
2024-02-12T09:54:29.536Z,2.20
2024-02-12T09:59:34.620Z,1.97
2024-02-12T10:04:41.380Z,1.80
2024-02-12T10:09:46.355Z,1.50
2024-02-12T10:14:51.172Z,2.23
2024-02-12T10:19:57.270Z,2.07
2024-02-12T10:25:06.405Z,1.87
2024-02-12T10:30:13.355Z,1.70
2024-02-12T10:35:21.368Z,2.00
2024-02-12T10:40:32.325Z,1.57
2024-02-12T10:45:36.960Z,1.83
2024-02-12T10:50:46.903Z,1.63
2024-02-12T10:55:52.741Z,1.67
2024-02-12T11:01:03.593Z,1.73
2024-02-12T11:06:13.600Z,1.70
2024-02-12T11:11:20.388Z,1.73
2024-02-12T11:16:25.098Z,2.03
2024-02-12T11:21:33.022Z,1.77
2024-02-12T11:26:41.187Z,1.47
2024-02-12T11:31:49.156Z,1.73
2024-02-12T11:37:03.113Z,1.50
2024-02-12T11:42:08.658Z,1.63
2024-02-12T11:47:13.260Z,1.27
2024-02-12T11:52:19.642Z,1.50
2024-02-12T11:57:26.584Z,1.60
2024-02-12T12:02:31.886Z,1.40
2024-02-12T12:07:41.063Z,1.50
2024-02-12T12:12:56.093Z,1.77
2024-02-12T12:18:05.682Z,1.40
2024-02-12T12:23:12.641Z,1.27
2024-02-12T12:28:17.161Z,1.10
2024-02-12T12:33:23.072Z,1.60
2024-02-12T12:38:29.321Z,1.30
2024-02-12T12:43:34.038Z,1.50
2024-02-12T12:48:38.574Z,1.40
2024-02-12T12:53:45.038Z,1.90
2024-02-12T12:58:50.047Z,1.40
2024-02-12T13:03:54.755Z,1.57
2024-02-12T13:09:04.274Z,1.50
2024-02-12T13:14:09.121Z,2.03
2024-02-12T13:19:14.950Z,1.43
2024-02-12T13:24:22.058Z,1.40
2024-02-12T13:29:26.565Z,1.63
2024-02-12T13:34:31.252Z,1.60
2024-02-12T13:39:38.590Z,1.50
2024-02-12T13:44:43.218Z,1.83
2024-02-12T13:49:49.267Z,1.80
2024-02-12T13:54:57.188Z,1.90
2024-02-12T14:00:26.041Z,1.60
2024-02-12T14:05:27.082Z,1.60
2024-02-12T14:10:33.709Z,1.70
2024-02-12T14:16:04.146Z,1.70
2024-02-12T14:21:03.703Z,2.03
2024-02-12T14:26:14.633Z,1.77
2024-02-12T14:31:19.630Z,1.80
2024-02-12T14:36:27.045Z,1.93
2024-02-12T14:41:33.369Z,1.63
2024-02-12T14:46:37.933Z,1.80
2024-02-12T14:51:42.503Z,1.93
2024-02-12T14:56:48.924Z,1.70
2024-02-12T15:01:53.601Z,1.80
2024-02-12T15:06:59.065Z,2.00
2024-02-12T15:12:05.248Z,1.87
2024-02-12T15:17:09.768Z,1.60
2024-02-12T15:22:14.265Z,1.70
2024-02-12T15:27:20.820Z,1.90
2024-02-12T15:32:25.828Z,1.70
2024-02-12T15:37:30.450Z,2.00
2024-02-12T15:42:36.485Z,1.87
2024-02-12T15:47:45.490Z,1.90
2024-02-12T15:52:50.070Z,1.97
2024-02-12T15:57:56.917Z,1.73
2024-02-12T16:03:02.589Z,1.90
2024-02-12T16:08:07.901Z,1.63
2024-02-12T16:13:14.044Z,1.80
2024-02-12T16:18:20.762Z,1.40
2024-02-12T16:23:25.419Z,1.80
2024-02-12T16:28:32.448Z,1.60
2024-02-12T16:33:38.173Z,1.90
2024-02-12T16:38:42.832Z,1.80
2024-02-12T16:43:48.884Z,1.93
2024-02-12T16:48:53.810Z,1.60
2024-02-12T16:54:00.079Z,2.00
2024-02-12T16:59:06.335Z,1.77
2024-02-12T17:04:12.222Z,1.60
2024-02-12T17:09:17.334Z,1.77
2024-02-12T17:14:23.121Z,1.53
2024-02-12T17:19:28.753Z,1.80
2024-02-12T17:24:33.524Z,1.80
2024-02-12T17:29:41.326Z,1.90
2024-02-12T17:34:46.883Z,1.70
2024-02-12T17:39:52.353Z,1.80
2024-02-12T17:44:58.373Z,1.67
2024-02-12T17:50:03.185Z,1.63
2024-02-12T17:55:08.621Z,1.70
2024-02-12T18:00:15.889Z,1.70
2024-02-12T18:05:20.728Z,1.50
2024-02-12T18:10:25.360Z,1.70
2024-02-12T18:15:33.551Z,1.77
2024-02-12T18:20:41.600Z,1.53
2024-02-12T18:25:47.192Z,1.90
2024-02-12T18:30:53.481Z,1.70
2024-02-12T18:35:59.541Z,1.70
2024-02-12T18:41:04.135Z,1.90
2024-02-12T18:46:10.078Z,1.30
2024-02-12T18:51:14.598Z,1.67
2024-02-12T18:56:21.085Z,1.77
2024-02-12T19:01:27.150Z,1.63
2024-02-12T19:06:32.114Z,1.50
2024-02-12T19:11:36.921Z,1.73
2024-02-12T19:16:42.826Z,1.53
2024-02-12T19:21:47.806Z,1.70
2024-02-12T19:26:53.696Z,1.73
2024-02-12T19:32:03.196Z,1.80
2024-02-12T19:37:08.176Z,1.57
2024-02-12T19:42:12.625Z,1.60
2024-02-12T19:47:19.738Z,1.77
2024-02-12T19:52:24.346Z,1.80
2024-02-12T19:57:29.262Z,1.70
2024-02-12T20:02:35.796Z,1.90
2024-02-12T20:07:41.540Z,1.60
2024-02-12T20:12:46.206Z,1.87
2024-02-12T20:17:52.439Z,1.50
2024-02-12T20:22:56.987Z,1.63
2024-02-12T20:28:05.168Z,1.83
2024-02-12T20:33:13.016Z,1.67
2024-02-12T20:38:17.744Z,1.60
2024-02-12T20:43:22.208Z,1.70
2024-02-12T20:48:28.312Z,1.67
2024-02-12T20:53:32.900Z,1.50
2024-02-12T20:58:37.389Z,1.30
2024-02-12T21:03:43.470Z,1.67
2024-02-12T21:08:49.393Z,1.87
2024-02-12T21:13:53.994Z,1.80
2024-02-12T21:19:01.628Z,1.70
2024-02-12T21:24:06.448Z,1.77
2024-02-12T21:29:11.224Z,1.60
2024-02-12T21:34:18.555Z,1.50
2024-02-12T21:39:35.575Z,1.67
2024-02-12T21:44:40.354Z,1.90
2024-02-12T21:49:46.770Z,1.67
2024-02-12T21:54:52.705Z,1.60
2024-02-12T21:59:58.057Z,1.80
2024-02-12T22:05:05.433Z,1.80
2024-02-12T22:10:12.752Z,1.70
2024-02-12T22:15:17.234Z,1.60
2024-02-12T22:20:23.312Z,1.57
2024-02-12T22:25:28.690Z,1.80
2024-02-12T22:30:35.254Z,1.50
2024-02-12T22:35:41.247Z,1.50
2024-02-12T22:40:46.607Z,1.60
2024-02-12T22:45:51.124Z,1.37
2024-02-12T22:50:57.612Z,2.20
2024-02-12T22:56:02.462Z,1.63
2024-02-12T23:01:07.253Z,1.63
2024-02-12T23:06:12.984Z,1.77
2024-02-12T23:11:20.076Z,1.73
2024-02-12T23:16:24.689Z,2.00
2024-02-12T23:21:30.890Z,2.00
2024-02-12T23:26:35.637Z,1.97
2024-02-12T23:31:40.403Z,1.60
2024-02-12T23:36:46.910Z,1.83
2024-02-12T23:41:54.240Z,2.00
2024-02-12T23:46:59.883Z,1.53
2024-02-12T23:52:08.001Z,1.77
2024-02-12T23:57:12.763Z,1.83
